LOBO55 KLAX-
Flight info
| Callsign | LOBO55 |
|---|---|
| Flight time | N/A |
| Altitude | VFR |
| Route | VFR N |
| Aircraft | TEX2/L-DOV/C |
Departure
| Time | 2026-04-25 01:43 |
|---|---|
| Airport | Los Angeles International Airport (KLAX) |
Arrival
| Time | N/A |
|---|---|
| Airport | - |
| Time | Latitude | Longitude | Altitude | Speed | Heading |
|---|---|---|---|---|---|
| 2026-04-25 01:41 | 33.93601 | -118.39559 | 230 ft | 153 kts | 266° |
| 2026-04-25 01:42 | 33.93452 | -118.41065 | 175 ft | 202 kts | 263° |
| 2026-04-25 01:42 | 33.93271 | -118.42829 | 204 ft | 224 kts | 264° |
| 2026-04-25 01:42 | 33.93581 | -118.43944 | 307 ft | 233 kts | 320° |
| 2026-04-25 01:42 | 33.94567 | -118.44532 | 236 ft | 247 kts | 333° |
| 2026-04-25 01:43 | 33.96166 | -118.45503 | 498 ft | 247 kts | 329° |
| 2026-04-25 01:43 | 33.97583 | -118.46557 | 808 ft | 245 kts | 323° |
| 2026-04-25 01:43 | 33.98946 | -118.47761 | 955 ft | 243 kts | 339° |
| 2026-04-25 01:43 | 34.00377 | -118.46992 | 1351 ft | 219 kts | 46° |
| 2026-04-25 01:44 | 34.01539 | -118.45694 | 1150 ft | 244 kts | 17° |
| 2026-04-25 01:44 | 34.03193 | -118.45429 | 1193 ft | 239 kts | 32° |
| 2026-04-25 01:44 | 34.04251 | -118.43915 | 1254 ft | 243 kts | 52° |
| 2026-04-25 01:44 | 34.05584 | -118.42762 | 1259 ft | 235 kts | 51° |
| 2026-04-25 01:45 | 34.05765 | -118.41073 | 980 ft | 188 kts | 83° |
| 2026-04-25 01:45 | 34.06648 | -118.40353 | 643 ft | 160 kts | 10° |
| 2026-04-25 01:45 | 34.07559 | -118.39425 | 740 ft | 174 kts | 47° |
| 2026-04-25 01:45 | 34.08452 | -118.38421 | 1135 ft | 182 kts | 36° |
| 2026-04-25 01:46 | 34.09634 | -118.37825 | 1601 ft | 186 kts | 14° |
| 2026-04-25 01:46 | 34.10948 | -118.37540 | 1973 ft | 196 kts | 7° |
| 2026-04-25 01:46 | 34.12300 | -118.37248 | 2254 ft | 208 kts | 16° |
| 2026-04-25 01:46 | 34.13700 | -118.36505 | 1870 ft | 235 kts | 29° |
| 2026-04-25 01:47 | 34.15234 | -118.35479 | 1306 ft | 257 kts | 28° |
| 2026-04-25 01:47 | 34.16917 | -118.34940 | 1205 ft | 254 kts | 0° |
| 2026-04-25 01:47 | 34.18665 | -118.35330 | 940 ft | 260 kts | 345° |
| 2026-04-25 01:47 | 34.20296 | -118.35733 | 904 ft | 252 kts | 359° |
| 2026-04-25 01:48 | 34.21870 | -118.36185 | 2099 ft | 222 kts | 339° |
| 2026-04-25 01:48 | 34.23405 | -118.36518 | 2559 ft | 219 kts | 6° |
| 2026-04-25 01:48 | 34.24737 | -118.35764 | 2801 ft | 221 kts | 47° |
| 2026-04-25 01:48 | 34.25482 | -118.34105 | 2768 ft | 227 kts | 68° |
| 2026-04-25 01:49 | 34.26267 | -118.32561 | 3119 ft | 213 kts | 53° |
| 2026-04-25 01:49 | 34.27330 | -118.31183 | 2802 ft | 231 kts | 44° |
| 2026-04-25 01:49 | 34.28373 | -118.29698 | 2893 ft | 224 kts | 57° |
| 2026-04-25 01:49 | 34.29571 | -118.28444 | 2246 ft | 242 kts | 41° |
| 2026-04-25 01:50 | 34.30181 | -118.26678 | 2218 ft | 235 kts | 59° |
| 2026-04-25 01:50 | 34.29874 | -118.24913 | 2210 ft | 233 kts | 118° |
| 2026-04-25 01:50 | 34.29087 | -118.23260 | 2311 ft | 235 kts | 137° |
| 2026-04-25 01:50 | 34.28248 | -118.21678 | 2565 ft | 207 kts | 162° |
| 2026-04-25 01:51 | 34.28230 | -118.20386 | 2735 ft | 187 kts | 77° |
| 2026-04-25 01:51 | 34.28966 | -118.19170 | 2708 ft | 199 kts | 23° |
| 2026-04-25 01:51 | 34.29686 | -118.17920 | 3436 ft | 180 kts | 64° |
| 2026-04-25 01:51 | 34.30252 | -118.16429 | 3221 ft | 214 kts | 42° |
| 2026-04-25 01:52 | 34.30908 | -118.14907 | 3376 ft | 211 kts | 89° |
| 2026-04-25 01:52 | 34.31355 | -118.13608 | 3491 ft | 137 kts | 29° |
| 2026-04-25 01:52 | 34.31769 | -118.12628 | 3636 ft | 159 kts | 97° |
| 2026-04-25 01:52 | 34.31055 | -118.11544 | 4140 ft | 187 kts | 146° |
| 2026-04-25 01:53 | 34.31095 | -118.10342 | 3848 ft | 141 kts | 78° |
| 2026-04-25 01:53 | 34.30775 | -118.09248 | 3879 ft | 147 kts | 163° |
| 2026-04-25 01:53 | 34.29660 | -118.09438 | 4350 ft | 180 kts | 210° |
| 2026-04-25 01:53 | 34.28716 | -118.10227 | 5552 ft | 168 kts | 215° |
| 2026-04-25 01:54 | 34.27680 | -118.11117 | 5840 ft | 201 kts | 217° |
| 2026-04-25 01:54 | 34.26511 | -118.12164 | 5695 ft | 217 kts | 218° |
| 2026-04-25 01:54 | 34.25567 | -118.13484 | 6156 ft | 197 kts | 244° |
| 2026-04-25 01:54 | 34.25126 | -118.14992 | 6739 ft | 191 kts | 250° |
| 2026-04-25 01:55 | 34.24687 | -118.16528 | 6919 ft | 194 kts | 249° |
| 2026-04-25 01:55 | 34.24185 | -118.18049 | 7091 ft | 197 kts | 245° |
| 2026-04-25 01:55 | 34.23583 | -118.19555 | 7311 ft | 203 kts | 244° |
| 2026-04-25 01:55 | 34.22906 | -118.21103 | 7463 ft | 212 kts | 240° |
| 2026-04-25 01:56 | 34.22155 | -118.22682 | 7414 ft | 209 kts | 239° |
| 2026-04-25 01:56 | 34.21448 | -118.24243 | 6785 ft | 218 kts | 244° |
| 2026-04-25 01:56 | 34.20906 | -118.26039 | 6057 ft | 234 kts | 251° |
| 2026-04-25 01:56 | 34.20431 | -118.27932 | 5279 ft | 221 kts | 255° |
| 2026-04-25 01:57 | 34.20186 | -118.31138 | 3429 ft | 180 kts | 269° |
| 2026-04-25 01:57 | 34.20209 | -118.32550 | 2710 ft | 166 kts | 270° |
| 2026-04-25 01:57 | 34.20200 | -118.33938 | 1804 ft | 165 kts | 264° |
| 2026-04-25 01:58 | 34.20841 | -118.34805 | 1351 ft | 139 kts | 329° |
| 2026-04-25 01:58 | 34.20937 | -118.35655 | 982 ft | 101 kts | 227° |
| 2026-04-25 01:58 | 34.20367 | -118.35799 | 717 ft | 74 kts | 171° |
| 2026-04-25 01:58 | 34.20017 | -118.35718 | 700 ft | 22 kts | 169° |
| 2026-04-25 01:59 | 34.19892 | -118.35701 | 691 ft | 10 kts | 227° |
| 2026-04-25 01:59 | 34.19886 | -118.35787 | 691 ft | 6 kts | 274° |
| 2026-04-25 01:59 | 34.19888 | -118.35879 | 695 ft | 15 kts | 269° |
| 2026-04-25 01:59 | 34.19900 | -118.36015 | 692 ft | 14 kts | 315° |
| 2026-04-25 02:00 | 34.19975 | -118.36001 | 696 ft | 13 kts | 59° |
| 2026-04-25 02:00 | 34.19991 | -118.35966 | 698 ft | 0 kts | 62° |